sensor_id;sensor_type;location;lat;lon;timestamp;temperature;humidity
62154;DHT22;48140;45.486;9.226;2022-09-01T00:01:13;23.70;87.60
62154;DHT22;48140;45.486;9.226;2022-09-01T00:03:43;23.70;87.50
62154;DHT22;48140;45.486;9.226;2022-09-01T00:06:16;23.70;87.10
62154;DHT22;48140;45.486;9.226;2022-09-01T00:08:50;23.70;87.00
62154;DHT22;48140;45.486;9.226;2022-09-01T00:11:15;23.80;88.10
62154;DHT22;48140;45.486;9.226;2022-09-01T00:13:41;23.70;86.90
62154;DHT22;48140;45.486;9.226;2022-09-01T00:16:07;23.70;87.10
62154;DHT22;48140;45.486;9.226;2022-09-01T00:18:32;23.70;87.50
62154;DHT22;48140;45.486;9.226;2022-09-01T00:21:00;23.60;87.60
62154;DHT22;48140;45.486;9.226;2022-09-01T00:23:25;23.60;87.80
62154;DHT22;48140;45.486;9.226;2022-09-01T00:25:51;23.60;87.90
62154;DHT22;48140;45.486;9.226;2022-09-01T00:28:17;23.60;88.10
62154;DHT22;48140;45.486;9.226;2022-09-01T00:30:42;23.60;88.30
62154;DHT22;48140;45.486;9.226;2022-09-01T00:33:08;23.60;88.20
62154;DHT22;48140;45.486;9.226;2022-09-01T00:35:34;23.60;88.40
62154;DHT22;48140;45.486;9.226;2022-09-01T00:37:59;23.50;88.60
62154;DHT22;48140;45.486;9.226;2022-09-01T00:40:25;23.50;88.80
62154;DHT22;48140;45.486;9.226;2022-09-01T00:42:50;23.50;89.30
62154;DHT22;48140;45.486;9.226;2022-09-01T00:45:18;23.50;89.20
62154;DHT22;48140;45.486;9.226;2022-09-01T00:47:45;23.50;89.10
62154;DHT22;48140;45.486;9.226;2022-09-01T00:50:10;23.50;89.50
62154;DHT22;48140;45.486;9.226;2022-09-01T00:52:41;23.50;89.40
62154;DHT22;48140;45.486;9.226;2022-09-01T00:55:15;23.40;89.60
62154;DHT22;48140;45.486;9.226;2022-09-01T00:57:41;23.50;89.50
62154;DHT22;48140;45.486;9.226;2022-09-01T01:00:09;23.40;89.70
62154;DHT22;48140;45.486;9.226;2022-09-01T01:02:36;23.40;90.00
62154;DHT22;48140;45.486;9.226;2022-09-01T01:05:04;23.40;89.90
62154;DHT22;48140;45.486;9.226;2022-09-01T01:07:29;23.40;90.00
62154;DHT22;48140;45.486;9.226;2022-09-01T01:09:55;23.40;89.70
62154;DHT22;48140;45.486;9.226;2022-09-01T01:12:21;23.40;89.80
62154;DHT22;48140;45.486;9.226;2022-09-01T01:14:48;23.40;89.40
62154;DHT22;48140;45.486;9.226;2022-09-01T01:17:15;23.50;88.60
62154;DHT22;48140;45.486;9.226;2022-09-01T01:19:41;23.50;88.30
62154;DHT22;48140;45.486;9.226;2022-09-01T01:25:10;23.60;87.80
62154;DHT22;48140;45.486;9.226;2022-09-01T01:27:37;23.60;86.60
62154;DHT22;48140;45.486;9.226;2022-09-01T01:30:07;23.60;86.00
62154;DHT22;48140;45.486;9.226;2022-09-01T01:32:38;23.60;85.80
62154;DHT22;48140;45.486;9.226;2022-09-01T01:35:11;23.60;86.00
62154;DHT22;48140;45.486;9.226;2022-09-01T01:37:41;23.60;85.30
62154;DHT22;48140;45.486;9.226;2022-09-01T01:40:13;23.70;85.10
62154;DHT22;48140;45.486;9.226;2022-09-01T01:42:45;23.70;85.00
62154;DHT22;48140;45.486;9.226;2022-09-01T01:45:16;23.70;84.40
62154;DHT22;48140;45.486;9.226;2022-09-01T01:47:46;23.60;84.20
62154;DHT22;48140;45.486;9.226;2022-09-01T01:50:25;23.60;84.10
62154;DHT22;48140;45.486;9.226;2022-09-01T01:52:51;23.70;83.20
62154;DHT22;48140;45.486;9.226;2022-09-01T01:55:17;23.70;82.90
62154;DHT22;48140;45.486;9.226;2022-09-01T01:57:44;23.70;82.60
62154;DHT22;48140;45.486;9.226;2022-09-01T02:00:15;23.70;81.80
62154;DHT22;48140;45.486;9.226;2022-09-01T02:02:44;23.70;83.30
62154;DHT22;48140;45.486;9.226;2022-09-01T02:05:13;23.70;81.50
62154;DHT22;48140;45.486;9.226;2022-09-01T02:07:46;23.70;81.60
62154;DHT22;48140;45.486;9.226;2022-09-01T02:10:12;23.60;81.20
62154;DHT22;48140;45.486;9.226;2022-09-01T02:12:38;23.60;82.30
62154;DHT22;48140;45.486;9.226;2022-09-01T02:15:06;23.60;81.80
62154;DHT22;48140;45.486;9.226;2022-09-01T02:17:32;23.60;82.10
62154;DHT22;48140;45.486;9.226;2022-09-01T02:19:57;23.60;81.00
62154;DHT22;48140;45.486;9.226;2022-09-01T02:22:23;23.60;81.10
62154;DHT22;48140;45.486;9.226;2022-09-01T02:24:49;23.60;81.50
62154;DHT22;48140;45.486;9.226;2022-09-01T02:27:18;23.60;81.30
62154;DHT22;48140;45.486;9.226;2022-09-01T02:29:49;23.70;80.70
62154;DHT22;48140;45.486;9.226;2022-09-01T02:32:18;23.70;80.70
62154;DHT22;48140;45.486;9.226;2022-09-01T02:34:49;23.70;80.90
62154;DHT22;48140;45.486;9.226;2022-09-01T02:37:21;23.70;80.80
62154;DHT22;48140;45.486;9.226;2022-09-01T02:39:52;23.70;80.60
62154;DHT22;48140;45.486;9.226;2022-09-01T02:42:18;23.70;81.00
62154;DHT22;48140;45.486;9.226;2022-09-01T02:44:54;23.70;81.00
62154;DHT22;48140;45.486;9.226;2022-09-01T02:47:21;23.60;81.00
62154;DHT22;48140;45.486;9.226;2022-09-01T02:49:48;23.50;81.70
62154;DHT22;48140;45.486;9.226;2022-09-01T02:52:14;23.50;81.90
62154;DHT22;48140;45.486;9.226;2022-09-01T02:54:42;23.50;82.10
62154;DHT22;48140;45.486;9.226;2022-09-01T02:57:10;23.40;82.60
62154;DHT22;48140;45.486;9.226;2022-09-01T02:59:36;23.40;83.20
62154;DHT22;48140;45.486;9.226;2022-09-01T03:02:02;23.40;83.50
62154;DHT22;48140;45.486;9.226;2022-09-01T03:04:28;23.40;83.50
62154;DHT22;48140;45.486;9.226;2022-09-01T03:07:00;23.30;83.70
62154;DHT22;48140;45.486;9.226;2022-09-01T03:09:25;23.20;83.90
62154;DHT22;48140;45.486;9.226;2022-09-01T03:11:52;23.20;83.90
62154;DHT22;48140;45.486;9.226;2022-09-01T03:14:18;23.20;84.40
62154;DHT22;48140;45.486;9.226;2022-09-01T03:16:44;23.20;84.40
62154;DHT22;48140;45.486;9.226;2022-09-01T03:19:10;23.20;84.60
62154;DHT22;48140;45.486;9.226;2022-09-01T03:21:37;23.20;84.70
62154;DHT22;48140;45.486;9.226;2022-09-01T03:24:05;23.20;84.70
62154;DHT22;48140;45.486;9.226;2022-09-01T03:26:33;23.20;84.70
62154;DHT22;48140;45.486;9.226;2022-09-01T03:29:00;23.20;84.60
62154;DHT22;48140;45.486;9.226;2022-09-01T03:31:26;23.30;84.50
62154;DHT22;48140;45.486;9.226;2022-09-01T03:33:55;23.30;84.30
62154;DHT22;48140;45.486;9.226;2022-09-01T03:36:24;23.30;84.80
62154;DHT22;48140;45.486;9.226;2022-09-01T03:38:51;23.30;84.90
62154;DHT22;48140;45.486;9.226;2022-09-01T03:41:18;23.30;84.80
62154;DHT22;48140;45.486;9.226;2022-09-01T03:43:44;23.30;85.00
62154;DHT22;48140;45.486;9.226;2022-09-01T03:46:09;23.30;85.10
62154;DHT22;48140;45.486;9.226;2022-09-01T03:48:36;23.30;83.50
62154;DHT22;48140;45.486;9.226;2022-09-01T03:51:03;23.30;83.70
62154;DHT22;48140;45.486;9.226;2022-09-01T03:53:30;23.30;83.90
62154;DHT22;48140;45.486;9.226;2022-09-01T03:55:55;23.30;83.40
62154;DHT22;48140;45.486;9.226;2022-09-01T03:58:22;23.30;83.60
62154;DHT22;48140;45.486;9.226;2022-09-01T04:00:58;23.30;84.00
62154;DHT22;48140;45.486;9.226;2022-09-01T04:03:28;23.30;84.30
62154;DHT22;48140;45.486;9.226;2022-09-01T04:05:55;23.30;83.90
62154;DHT22;48140;45.486;9.226;2022-09-01T04:08:21;23.30;83.50
62154;DHT22;48140;45.486;9.226;2022-09-01T04:10:53;23.40;83.60
62154;DHT22;48140;45.486;9.226;2022-09-01T04:13:21;23.40;83.60
62154;DHT22;48140;45.486;9.226;2022-09-01T04:15:47;23.40;83.30
62154;DHT22;48140;45.486;9.226;2022-09-01T04:18:13;23.40;83.30
62154;DHT22;48140;45.486;9.226;2022-09-01T04:20:46;23.50;87.30
62154;DHT22;48140;45.486;9.226;2022-09-01T04:23:16;23.40;89.40
62154;DHT22;48140;45.486;9.226;2022-09-01T04:25:45;23.40;90.20
62154;DHT22;48140;45.486;9.226;2022-09-01T04:28:13;23.40;90.30
62154;DHT22;48140;45.486;9.226;2022-09-01T04:30:48;23.40;90.80
62154;DHT22;48140;45.486;9.226;2022-09-01T04:33:14;23.40;91.30
62154;DHT22;48140;45.486;9.226;2022-09-01T04:35:41;23.30;91.70
62154;DHT22;48140;45.486;9.226;2022-09-01T04:38:07;23.30;92.60
62154;DHT22;48140;45.486;9.226;2022-09-01T04:40:36;23.20;92.60
62154;DHT22;48140;45.486;9.226;2022-09-01T04:43:03;23.10;93.30
62154;DHT22;48140;45.486;9.226;2022-09-01T04:45:29;23.10;92.70
62154;DHT22;48140;45.486;9.226;2022-09-01T04:47:56;23.10;92.50
62154;DHT22;48140;45.486;9.226;2022-09-01T04:50:24;23.10;92.70
62154;DHT22;48140;45.486;9.226;2022-09-01T04:52:50;23.10;92.80
62154;DHT22;48140;45.486;9.226;2022-09-01T04:55:17;23.10;92.60
62154;DHT22;48140;45.486;9.226;2022-09-01T04:57:47;23.10;92.70
62154;DHT22;48140;45.486;9.226;2022-09-01T05:00:14;23.10;92.50
62154;DHT22;48140;45.486;9.226;2022-09-01T05:02:47;23.20;92.40
62154;DHT22;48140;45.486;9.226;2022-09-01T05:05:13;23.20;91.60
62154;DHT22;48140;45.486;9.226;2022-09-01T05:07:38;23.40;91.50
62154;DHT22;48140;45.486;9.226;2022-09-01T05:10:04;23.50;90.90
62154;DHT22;48140;45.486;9.226;2022-09-01T05:12:29;23.70;90.90
62154;DHT22;48140;45.486;9.226;2022-09-01T05:14:55;23.60;90.60
62154;DHT22;48140;45.486;9.226;2022-09-01T05:17:20;23.60;90.30
62154;DHT22;48140;45.486;9.226;2022-09-01T05:19:47;23.60;90.80
62154;DHT22;48140;45.486;9.226;2022-09-01T05:22:14;23.60;90.70
62154;DHT22;48140;45.486;9.226;2022-09-01T05:24:46;23.50;91.10
62154;DHT22;48140;45.486;9.226;2022-09-01T05:27:12;23.50;90.50
62154;DHT22;48140;45.486;9.226;2022-09-01T05:29:39;23.40;90.00
62154;DHT22;48140;45.486;9.226;2022-09-01T05:32:05;23.40;89.80
62154;DHT22;48140;45.486;9.226;2022-09-01T05:34:34;23.40;89.70
62154;DHT22;48140;45.486;9.226;2022-09-01T05:37:02;23.40;89.30
62154;DHT22;48140;45.486;9.226;2022-09-01T05:39:28;23.50;89.70
62154;DHT22;48140;45.486;9.226;2022-09-01T05:41:53;23.50;90.20
62154;DHT22;48140;45.486;9.226;2022-09-01T05:44:20;23.50;90.10
62154;DHT22;48140;45.486;9.226;2022-09-01T05:46:47;23.50;89.40
62154;DHT22;48140;45.486;9.226;2022-09-01T05:49:13;23.50;89.60
62154;DHT22;48140;45.486;9.226;2022-09-01T05:51:41;23.50;88.30
62154;DHT22;48140;45.486;9.226;2022-09-01T05:54:07;23.50;88.80
62154;DHT22;48140;45.486;9.226;2022-09-01T05:56:34;23.40;88.80
62154;DHT22;48140;45.486;9.226;2022-09-01T05:59:04;23.50;87.70
62154;DHT22;48140;45.486;9.226;2022-09-01T06:01:30;23.50;86.80
62154;DHT22;48140;45.486;9.226;2022-09-01T06:03:58;23.50;86.30
62154;DHT22;48140;45.486;9.226;2022-09-01T06:06:28;23.50;85.90
62154;DHT22;48140;45.486;9.226;2022-09-01T06:08:54;23.50;85.70
62154;DHT22;48140;45.486;9.226;2022-09-01T06:11:24;23.60;85.00
62154;DHT22;48140;45.486;9.226;2022-09-01T06:13:51;23.70;84.10
62154;DHT22;48140;45.486;9.226;2022-09-01T06:16:16;23.70;83.70
62154;DHT22;48140;45.486;9.226;2022-09-01T06:18:44;23.70;83.10
62154;DHT22;48140;45.486;9.226;2022-09-01T06:21:10;23.70;82.80
62154;DHT22;48140;45.486;9.226;2022-09-01T06:23:42;23.80;82.00
62154;DHT22;48140;45.486;9.226;2022-09-01T06:26:15;23.90;81.80
62154;DHT22;48140;45.486;9.226;2022-09-01T06:28:42;23.90;80.70
62154;DHT22;48140;45.486;9.226;2022-09-01T06:31:07;23.90;81.00
62154;DHT22;48140;45.486;9.226;2022-09-01T06:33:33;23.90;81.30
62154;DHT22;48140;45.486;9.226;2022-09-01T06:36:00;23.90;81.90
62154;DHT22;48140;45.486;9.226;2022-09-01T06:38:28;23.90;82.50
62154;DHT22;48140;45.486;9.226;2022-09-01T06:41:00;23.90;81.30
62154;DHT22;48140;45.486;9.226;2022-09-01T06:43:26;23.80;81.60
62154;DHT22;48140;45.486;9.226;2022-09-01T06:45:54;23.90;80.80
62154;DHT22;48140;45.486;9.226;2022-09-01T06:48:20;23.90;80.30
62154;DHT22;48140;45.486;9.226;2022-09-01T06:50:48;23.90;78.90
62154;DHT22;48140;45.486;9.226;2022-09-01T06:53:14;24.00;79.00
62154;DHT22;48140;45.486;9.226;2022-09-01T06:55:43;24.10;77.70
62154;DHT22;48140;45.486;9.226;2022-09-01T06:58:10;24.40;76.70
62154;DHT22;48140;45.486;9.226;2022-09-01T07:00:40;24.50;75.50
62154;DHT22;48140;45.486;9.226;2022-09-01T07:03:10;24.70;74.80
62154;DHT22;48140;45.486;9.226;2022-09-01T07:05:39;24.80;74.00
62154;DHT22;48140;45.486;9.226;2022-09-01T07:08:05;24.90;73.30
62154;DHT22;48140;45.486;9.226;2022-09-01T07:10:42;25.00;72.60
62154;DHT22;48140;45.486;9.226;2022-09-01T07:13:13;25.10;71.90
62154;DHT22;48140;45.486;9.226;2022-09-01T07:15:44;25.20;71.50
62154;DHT22;48140;45.486;9.226;2022-09-01T07:18:13;25.30;70.50
62154;DHT22;48140;45.486;9.226;2022-09-01T07:20:39;25.30;70.40
62154;DHT22;48140;45.486;9.226;2022-09-01T07:23:06;25.40;70.20
62154;DHT22;48140;45.486;9.226;2022-09-01T07:25:37;25.10;70.90
62154;DHT22;48140;45.486;9.226;2022-09-01T07:28:04;25.30;71.10
62154;DHT22;48140;45.486;9.226;2022-09-01T07:30:29;25.00;72.30
62154;DHT22;48140;45.486;9.226;2022-09-01T07:32:56;25.00;73.10
62154;DHT22;48140;45.486;9.226;2022-09-01T07:35:22;25.10;73.40
62154;DHT22;48140;45.486;9.226;2022-09-01T07:37:48;25.10;73.40
62154;DHT22;48140;45.486;9.226;2022-09-01T07:40:15;25.00;73.90
62154;DHT22;48140;45.486;9.226;2022-09-01T07:42:43;24.90;73.10
62154;DHT22;48140;45.486;9.226;2022-09-01T07:45:09;25.10;73.40
62154;DHT22;48140;45.486;9.226;2022-09-01T07:47:35;25.20;73.10
62154;DHT22;48140;45.486;9.226;2022-09-01T07:50:04;25.30;72.80
62154;DHT22;48140;45.486;9.226;2022-09-01T07:52:36;25.50;72.40
62154;DHT22;48140;45.486;9.226;2022-09-01T07:57:35;25.60;72.20
62154;DHT22;48140;45.486;9.226;2022-09-01T08:00:01;25.50;72.30
62154;DHT22;48140;45.486;9.226;2022-09-01T08:02:26;25.30;73.50
62154;DHT22;48140;45.486;9.226;2022-09-01T08:04:52;25.30;73.50
62154;DHT22;48140;45.486;9.226;2022-09-01T08:07:17;25.30;73.80
62154;DHT22;48140;45.486;9.226;2022-09-01T08:09:43;25.40;73.40
62154;DHT22;48140;45.486;9.226;2022-09-01T08:12:09;25.60;72.60
62154;DHT22;48140;45.486;9.226;2022-09-01T08:14:34;25.70;72.00
62154;DHT22;48140;45.486;9.226;2022-09-01T08:17:00;25.70;72.00
62154;DHT22;48140;45.486;9.226;2022-09-01T08:19:25;25.60;72.20
62154;DHT22;48140;45.486;9.226;2022-09-01T08:21:51;25.50;72.70
62154;DHT22;48140;45.486;9.226;2022-09-01T08:24:16;25.40;73.00
62154;DHT22;48140;45.486;9.226;2022-09-01T08:26:43;25.30;73.50
62154;DHT22;48140;45.486;9.226;2022-09-01T08:29:08;25.40;73.60
62154;DHT22;48140;45.486;9.226;2022-09-01T08:31:34;25.50;73.30
62154;DHT22;48140;45.486;9.226;2022-09-01T08:34:00;25.50;73.50
62154;DHT22;48140;45.486;9.226;2022-09-01T08:36:29;25.50;75.10
62154;DHT22;48140;45.486;9.226;2022-09-01T08:38:55;25.50;74.20
62154;DHT22;48140;45.486;9.226;2022-09-01T08:46:34;25.50;74.10
62154;DHT22;48140;45.486;9.226;2022-09-01T08:54:38;25.90;73.40
62154;DHT22;48140;45.486;9.226;2022-09-01T08:57:08;26.00;72.90
62154;DHT22;48140;45.486;9.226;2022-09-01T08:59:35;25.80;73.50
62154;DHT22;48140;45.486;9.226;2022-09-01T09:04:46;25.70;74.50
62154;DHT22;48140;45.486;9.226;2022-09-01T09:07:24;25.80;74.90
62154;DHT22;48140;45.486;9.226;2022-09-01T09:10:02;25.80;74.80
62154;DHT22;48140;45.486;9.226;2022-09-01T09:15:17;25.90;74.20
62154;DHT22;48140;45.486;9.226;2022-09-01T09:17:46;26.00;74.30
62154;DHT22;48140;45.486;9.226;2022-09-01T09:20:12;26.00;73.50
62154;DHT22;48140;45.486;9.226;2022-09-01T09:22:38;26.10;72.70
62154;DHT22;48140;45.486;9.226;2022-09-01T09:25:07;26.10;72.30
62154;DHT22;48140;45.486;9.226;2022-09-01T09:27:35;26.10;72.10
62154;DHT22;48140;45.486;9.226;2022-09-01T09:30:07;26.30;71.70
62154;DHT22;48140;45.486;9.226;2022-09-01T09:37:48;27.40;68.40
62154;DHT22;48140;45.486;9.226;2022-09-01T09:40:15;27.80;66.20
62154;DHT22;48140;45.486;9.226;2022-09-01T09:42:43;27.90;64.40
62154;DHT22;48140;45.486;9.226;2022-09-01T09:45:39;28.20;62.50
62154;DHT22;48140;45.486;9.226;2022-09-01T09:48:09;28.20;62.10
62154;DHT22;48140;45.486;9.226;2022-09-01T09:50:38;28.00;62.90
62154;DHT22;48140;45.486;9.226;2022-09-01T09:53:24;28.30;62.70
62154;DHT22;48140;45.486;9.226;2022-09-01T09:56:00;28.50;62.20
62154;DHT22;48140;45.486;9.226;2022-09-01T09:58:29;28.90;61.00
62154;DHT22;48140;45.486;9.226;2022-09-01T10:03:49;28.40;61.70
62154;DHT22;48140;45.486;9.226;2022-09-01T10:06:29;28.70;60.80
62154;DHT22;48140;45.486;9.226;2022-09-01T10:08:55;29.20;59.40
62154;DHT22;48140;45.486;9.226;2022-09-01T10:11:25;28.90;60.10
62154;DHT22;48140;45.486;9.226;2022-09-01T10:13:52;29.20;59.20
62154;DHT22;48140;45.486;9.226;2022-09-01T10:16:21;29.10;59.00
62154;DHT22;48140;45.486;9.226;2022-09-01T10:18:49;29.10;58.50
62154;DHT22;48140;45.486;9.226;2022-09-01T10:21:20;28.80;60.30
62154;DHT22;48140;45.486;9.226;2022-09-01T10:23:48;28.90;60.50
62154;DHT22;48140;45.486;9.226;2022-09-01T10:26:24;28.60;60.90
62154;DHT22;48140;45.486;9.226;2022-09-01T10:31:17;28.20;62.90
62154;DHT22;48140;45.486;9.226;2022-09-01T10:33:44;28.60;62.10
62154;DHT22;48140;45.486;9.226;2022-09-01T10:36:10;28.50;60.30
62154;DHT22;48140;45.486;9.226;2022-09-01T10:38:36;28.90;59.80
62154;DHT22;48140;45.486;9.226;2022-09-01T10:41:01;29.40;57.70
62154;DHT22;48140;45.486;9.226;2022-09-01T10:43:48;29.80;55.90
62154;DHT22;48140;45.486;9.226;2022-09-01T10:49:01;29.30;56.60
62154;DHT22;48140;45.486;9.226;2022-09-01T11:15:54;29.00;57.50
62154;DHT22;48140;45.486;9.226;2022-09-01T11:18:24;28.80;58.50
62154;DHT22;48140;45.486;9.226;2022-09-01T11:20:51;28.70;58.10
62154;DHT22;48140;45.486;9.226;2022-09-01T11:23:22;28.70;58.20
62154;DHT22;48140;45.486;9.226;2022-09-01T11:25:50;28.60;59.10
62154;DHT22;48140;45.486;9.226;2022-09-01T11:28:37;28.70;60.00
62154;DHT22;48140;45.486;9.226;2022-09-01T11:33:33;28.60;61.60
62154;DHT22;48140;45.486;9.226;2022-09-01T11:36:03;28.40;61.40
62154;DHT22;48140;45.486;9.226;2022-09-01T11:38:31;28.30;61.30
62154;DHT22;48140;45.486;9.226;2022-09-01T11:40:58;28.30;60.70
62154;DHT22;48140;45.486;9.226;2022-09-01T11:43:24;28.30;60.30
62154;DHT22;48140;45.486;9.226;2022-09-01T11:45:57;28.20;60.50
62154;DHT22;48140;45.486;9.226;2022-09-01T11:48:26;28.30;60.20
62154;DHT22;48140;45.486;9.226;2022-09-01T11:50:56;28.20;59.80
62154;DHT22;48140;45.486;9.226;2022-09-01T11:53:22;28.30;59.40
62154;DHT22;48140;45.486;9.226;2022-09-01T11:55:49;28.50;59.40
62154;DHT22;48140;45.486;9.226;2022-09-01T12:00:56;29.80;55.60
62154;DHT22;48140;45.486;9.226;2022-09-01T12:03:26;30.50;52.70
62154;DHT22;48140;45.486;9.226;2022-09-01T12:06:03;30.70;51.10
62154;DHT22;48140;45.486;9.226;2022-09-01T12:08:30;31.10;49.10
62154;DHT22;48140;45.486;9.226;2022-09-01T12:11:04;31.60;48.50
62154;DHT22;48140;45.486;9.226;2022-09-01T12:13:30;32.00;46.80
62154;DHT22;48140;45.486;9.226;2022-09-01T12:15:57;32.30;45.10
62154;DHT22;48140;45.486;9.226;2022-09-01T12:18:24;32.50;43.60
62154;DHT22;48140;45.486;9.226;2022-09-01T12:20:52;33.00;41.70
62154;DHT22;48140;45.486;9.226;2022-09-01T12:25:49;33.40;41.50
62154;DHT22;48140;45.486;9.226;2022-09-01T12:28:15;32.70;42.30
62154;DHT22;48140;45.486;9.226;2022-09-01T12:30:40;32.40;43.20
62154;DHT22;48140;45.486;9.226;2022-09-01T12:33:07;31.90;43.80
62154;DHT22;48140;45.486;9.226;2022-09-01T12:35:33;32.00;44.30
62154;DHT22;48140;45.486;9.226;2022-09-01T12:40:43;32.20;42.90
62154;DHT22;48140;45.486;9.226;2022-09-01T12:43:11;32.70;41.90
62154;DHT22;48140;45.486;9.226;2022-09-01T12:45:37;32.70;40.40
62154;DHT22;48140;45.486;9.226;2022-09-01T12:48:03;32.00;41.50
62154;DHT22;48140;45.486;9.226;2022-09-01T12:52:55;32.00;41.40
62154;DHT22;48140;45.486;9.226;2022-09-01T12:55:25;31.60;41.80
62154;DHT22;48140;45.486;9.226;2022-09-01T12:57:52;31.30;43.50
62154;DHT22;48140;45.486;9.226;2022-09-01T13:00:23;31.20;44.90
62154;DHT22;48140;45.486;9.226;2022-09-01T13:02:49;30.90;45.40
62154;DHT22;48140;45.486;9.226;2022-09-01T13:05:39;30.80;46.40
62154;DHT22;48140;45.486;9.226;2022-09-01T13:08:05;30.40;46.20
62154;DHT22;48140;45.486;9.226;2022-09-01T13:10:34;30.20;47.70
62154;DHT22;48140;45.486;9.226;2022-09-01T13:13:02;30.30;47.40
62154;DHT22;48140;45.486;9.226;2022-09-01T13:15:28;30.50;47.40
62154;DHT22;48140;45.486;9.226;2022-09-01T13:17:55;30.50;46.20
62154;DHT22;48140;45.486;9.226;2022-09-01T13:20:21;30.40;45.60
62154;DHT22;48140;45.486;9.226;2022-09-01T13:22:47;30.20;45.10
62154;DHT22;48140;45.486;9.226;2022-09-01T13:25:15;30.50;45.50
62154;DHT22;48140;45.486;9.226;2022-09-01T13:27:42;30.80;45.20
62154;DHT22;48140;45.486;9.226;2022-09-01T13:30:09;31.00;44.80
62154;DHT22;48140;45.486;9.226;2022-09-01T13:32:35;30.90;44.90
62154;DHT22;48140;45.486;9.226;2022-09-01T13:35:00;31.20;44.40
62154;DHT22;48140;45.486;9.226;2022-09-01T13:37:26;31.90;42.70
62154;DHT22;48140;45.486;9.226;2022-09-01T13:39:51;31.80;41.70
62154;DHT22;48140;45.486;9.226;2022-09-01T13:42:17;32.10;41.80
62154;DHT22;48140;45.486;9.226;2022-09-01T13:44:43;32.30;41.50
62154;DHT22;48140;45.486;9.226;2022-09-01T13:47:08;32.60;40.60
62154;DHT22;48140;45.486;9.226;2022-09-01T13:49:34;32.90;40.30
62154;DHT22;48140;45.486;9.226;2022-09-01T13:52:00;32.90;40.70
62154;DHT22;48140;45.486;9.226;2022-09-01T13:54:25;32.90;41.00
62154;DHT22;48140;45.486;9.226;2022-09-01T13:56:51;33.20;39.80
62154;DHT22;48140;45.486;9.226;2022-09-01T13:59:16;33.50;39.00
62154;DHT22;48140;45.486;9.226;2022-09-01T14:01:42;33.70;38.30
62154;DHT22;48140;45.486;9.226;2022-09-01T14:04:07;33.70;38.00
62154;DHT22;48140;45.486;9.226;2022-09-01T14:06:38;33.30;38.20
62154;DHT22;48140;45.486;9.226;2022-09-01T14:09:03;33.10;39.10
62154;DHT22;48140;45.486;9.226;2022-09-01T14:11:29;33.40;38.60
62154;DHT22;48140;45.486;9.226;2022-09-01T14:13:56;33.80;37.60
62154;DHT22;48140;45.486;9.226;2022-09-01T14:16:21;34.00;37.40
62154;DHT22;48140;45.486;9.226;2022-09-01T14:18:47;34.30;36.50
62154;DHT22;48140;45.486;9.226;2022-09-01T14:21:13;34.10;36.60
62154;DHT22;48140;45.486;9.226;2022-09-01T14:23:40;34.10;35.60
62154;DHT22;48140;45.486;9.226;2022-09-01T14:26:09;34.00;35.80
62154;DHT22;48140;45.486;9.226;2022-09-01T14:28:36;34.10;36.10
62154;DHT22;48140;45.486;9.226;2022-09-01T14:31:06;34.10;35.80
62154;DHT22;48140;45.486;9.226;2022-09-01T14:33:31;34.00;35.50
62154;DHT22;48140;45.486;9.226;2022-09-01T14:35:58;34.00;36.40
62154;DHT22;48140;45.486;9.226;2022-09-01T14:38:23;33.60;36.50
62154;DHT22;48140;45.486;9.226;2022-09-01T14:40:49;33.60;36.30
62154;DHT22;48140;45.486;9.226;2022-09-01T14:43:16;33.80;35.60
62154;DHT22;48140;45.486;9.226;2022-09-01T14:45:42;33.90;35.50
62154;DHT22;48140;45.486;9.226;2022-09-01T14:48:13;33.90;35.30
62154;DHT22;48140;45.486;9.226;2022-09-01T14:50:43;34.20;34.80
62154;DHT22;48140;45.486;9.226;2022-09-01T14:53:09;34.00;34.80
62154;DHT22;48140;45.486;9.226;2022-09-01T14:55:35;33.40;34.90
62154;DHT22;48140;45.486;9.226;2022-09-01T14:58:00;33.20;36.40
62154;DHT22;48140;45.486;9.226;2022-09-01T15:00:26;33.20;35.70
62154;DHT22;48140;45.486;9.226;2022-09-01T15:02:53;33.20;36.00
62154;DHT22;48140;45.486;9.226;2022-09-01T15:05:19;33.40;35.60
62154;DHT22;48140;45.486;9.226;2022-09-01T15:07:44;33.10;35.00
62154;DHT22;48140;45.486;9.226;2022-09-01T15:10:11;33.00;35.40
62154;DHT22;48140;45.486;9.226;2022-09-01T15:12:37;32.90;35.20
62154;DHT22;48140;45.486;9.226;2022-09-01T15:15:04;32.90;35.80
62154;DHT22;48140;45.486;9.226;2022-09-01T15:17:30;32.90;35.30
62154;DHT22;48140;45.486;9.226;2022-09-01T15:19:55;33.00;35.50
62154;DHT22;48140;45.486;9.226;2022-09-01T15:22:41;32.60;35.80
62154;DHT22;48140;45.486;9.226;2022-09-01T15:25:06;32.90;35.50
62154;DHT22;48140;45.486;9.226;2022-09-01T15:27:32;32.80;35.70
62154;DHT22;48140;45.486;9.226;2022-09-01T15:29:57;33.10;35.30
62154;DHT22;48140;45.486;9.226;2022-09-01T15:32:23;33.20;34.90
62154;DHT22;48140;45.486;9.226;2022-09-01T15:34:49;33.30;34.10
62154;DHT22;48140;45.486;9.226;2022-09-01T15:37:14;33.10;34.50
62154;DHT22;48140;45.486;9.226;2022-09-01T15:39:40;33.10;35.00
62154;DHT22;48140;45.486;9.226;2022-09-01T15:42:06;33.30;34.70
62154;DHT22;48140;45.486;9.226;2022-09-01T15:44:32;33.50;34.00
62154;DHT22;48140;45.486;9.226;2022-09-01T15:46:57;33.90;33.70
62154;DHT22;48140;45.486;9.226;2022-09-01T15:49:23;34.00;33.20
62154;DHT22;48140;45.486;9.226;2022-09-01T15:51:48;34.20;32.30
62154;DHT22;48140;45.486;9.226;2022-09-01T15:54:15;33.70;33.10
62154;DHT22;48140;45.486;9.226;2022-09-01T15:56:42;33.80;32.60
62154;DHT22;48140;45.486;9.226;2022-09-01T15:59:08;33.70;32.40
62154;DHT22;48140;45.486;9.226;2022-09-01T16:01:44;33.10;33.50
62154;DHT22;48140;45.486;9.226;2022-09-01T16:04:10;32.80;34.80
62154;DHT22;48140;45.486;9.226;2022-09-01T16:06:37;32.90;34.40
62154;DHT22;48140;45.486;9.226;2022-09-01T16:09:03;33.20;33.70
62154;DHT22;48140;45.486;9.226;2022-09-01T16:11:28;33.10;34.20
62154;DHT22;48140;45.486;9.226;2022-09-01T16:13:54;33.20;34.60
62154;DHT22;48140;45.486;9.226;2022-09-01T16:19:47;33.10;34.70
62154;DHT22;48140;45.486;9.226;2022-09-01T16:24:21;32.70;35.90
62154;DHT22;48140;45.486;9.226;2022-09-01T16:26:47;32.20;36.30
62154;DHT22;48140;45.486;9.226;2022-09-01T16:29:37;31.50;37.70
62154;DHT22;48140;45.486;9.226;2022-09-01T16:31:59;30.70;39.10
62154;DHT22;48140;45.486;9.226;2022-09-01T16:34:24;30.50;40.00
62154;DHT22;48140;45.486;9.226;2022-09-01T16:39:39;29.90;41.80
62154;DHT22;48140;45.486;9.226;2022-09-01T16:42:12;29.70;42.80
62154;DHT22;48140;45.486;9.226;2022-09-01T16:44:56;29.60;43.10
62154;DHT22;48140;45.486;9.226;2022-09-01T16:50:04;29.10;43.70
62154;DHT22;48140;45.486;9.226;2022-09-01T16:55:24;28.90;44.30
62154;DHT22;48140;45.486;9.226;2022-09-01T17:00:24;28.40;45.10
62154;DHT22;48140;45.486;9.226;2022-09-01T17:05:42;28.80;44.40